createdAt,value
2023-04-14T00:01:48.529Z,3.65
2023-04-14T00:04:15.759Z,3.72
2023-04-14T00:06:43.020Z,3.70
2023-04-14T00:09:10.535Z,3.17
2023-04-14T00:11:37.324Z,3.35
2023-04-14T00:14:04.138Z,4.25
2023-04-14T00:16:31.299Z,4.28
2023-04-14T00:18:58.259Z,3.75
2023-04-14T00:21:26.729Z,4.07
2023-04-14T00:23:53.499Z,3.08
2023-04-14T00:26:20.349Z,3.22
2023-04-14T00:28:47.217Z,3.17
2023-04-14T00:31:14.039Z,3.08
2023-04-14T00:33:40.802Z,3.20
2023-04-14T00:36:07.800Z,3.28
2023-04-14T00:38:34.568Z,3.20
2023-04-14T00:41:01.573Z,3.10
2023-04-14T00:43:28.307Z,3.13
2023-04-14T00:45:55.572Z,3.15
2023-04-14T00:48:22.682Z,3.05
2023-04-14T00:50:49.629Z,3.00
2023-04-14T00:53:16.487Z,2.88
2023-04-14T00:55:43.470Z,2.70
2023-04-14T00:58:11.080Z,2.88
2023-04-14T01:00:37.953Z,2.72
2023-04-14T01:03:05.858Z,3.00
2023-04-14T01:05:34.141Z,2.80
2023-04-14T01:08:03.648Z,2.60
2023-04-14T01:10:41.052Z,3.35
2023-04-14T01:13:35.176Z,2.85
2023-04-14T01:16:14.853Z,2.85
2023-04-14T01:19:05.291Z,2.67
2023-04-14T01:21:38.568Z,2.70
2023-04-14T01:24:36.982Z,2.63
2023-04-14T01:27:33.999Z,3.17
2023-04-14T01:30:32.441Z,2.90
2023-04-14T01:33:05.737Z,3.45
2023-04-14T01:35:49.398Z,3.17
2023-04-14T01:38:27.316Z,2.90
2023-04-14T01:41:00.609Z,3.15
2023-04-14T01:43:32.006Z,3.30
2023-04-14T01:46:06.994Z,3.42
2023-04-14T01:48:34.798Z,3.60
2023-04-14T01:51:05.762Z,3.45
2023-04-14T01:53:37.095Z,3.50
2023-04-14T01:56:07.770Z,3.13
2023-04-14T01:58:36.313Z,3.13
2023-04-14T02:01:05.310Z,3.53
2023-04-14T02:03:33.705Z,2.97
2023-04-14T02:06:03.903Z,2.95
2023-04-14T02:08:33.726Z,3.45
2023-04-14T02:11:02.482Z,2.78
2023-04-14T02:13:32.757Z,2.70
2023-04-14T02:16:01.880Z,2.63
2023-04-14T02:18:31.624Z,2.20
2023-04-14T02:21:02.524Z,2.53
2023-04-14T02:23:29.405Z,2.20
2023-04-14T02:26:07.301Z,2.42
2023-04-14T02:28:43.427Z,2.33
2023-04-14T02:31:16.599Z,2.40
2023-04-14T02:33:45.718Z,2.38
2023-04-14T02:36:22.487Z,2.08
2023-04-14T02:38:59.400Z,2.47
2023-04-14T02:41:32.700Z,2.20
2023-04-14T02:44:41.997Z,2.27
2023-04-14T02:47:13.544Z,2.50
2023-04-14T02:49:46.747Z,2.08
2023-04-14T02:52:19.144Z,2.60
2023-04-14T02:54:48.996Z,2.42
2023-04-14T02:57:17.509Z,2.40
2023-04-14T02:59:47.211Z,2.30
2023-04-14T03:02:16.480Z,2.10
2023-04-14T03:04:44.467Z,2.22
2023-04-14T03:07:14.640Z,2.55
2023-04-14T03:09:42.770Z,2.20
2023-04-14T03:12:13.773Z,2.50
2023-04-14T03:14:44.145Z,2.38
2023-04-14T03:17:14.687Z,2.50
2023-04-14T03:19:43.853Z,2.58
2023-04-14T03:22:13.598Z,2.50
2023-04-14T03:24:41.972Z,2.53
2023-04-14T03:27:17.468Z,2.70
2023-04-14T03:29:50.871Z,2.45
2023-04-14T03:32:22.290Z,2.78
2023-04-14T03:34:56.732Z,2.55
2023-04-14T03:37:27.423Z,2.28
2023-04-14T03:40:00.469Z,2.50
2023-04-14T03:42:29.427Z,3.17
2023-04-14T03:45:00.393Z,2.80
2023-04-14T03:47:31.426Z,2.60
2023-04-14T03:50:01.349Z,2.50
2023-04-14T03:52:34.018Z,2.38
2023-04-14T03:55:06.496Z,2.63
2023-04-14T03:57:37.178Z,2.75
2023-04-14T04:00:08.493Z,2.53
2023-04-14T04:02:36.770Z,2.45
2023-04-14T04:05:06.114Z,2.10
2023-04-14T04:07:34.978Z,2.45
2023-04-14T04:10:04.869Z,2.65
2023-04-14T04:12:33.185Z,2.05
2023-04-14T04:15:01.300Z,2.25
2023-04-14T04:17:33.314Z,2.35
2023-04-14T04:20:07.193Z,2.30
2023-04-14T04:22:38.903Z,2.00
2023-04-14T04:25:07.483Z,2.78
2023-04-14T04:27:34.937Z,2.17
2023-04-14T04:30:02.141Z,2.10
2023-04-14T04:32:29.715Z,2.10
2023-04-14T04:34:57.528Z,2.00
2023-04-14T04:37:28.696Z,1.95
2023-04-14T04:39:58.586Z,2.15
2023-04-14T04:42:25.393Z,2.05
2023-04-14T04:44:52.479Z,2.22
2023-04-14T04:47:19.217Z,2.10
2023-04-14T04:49:45.961Z,2.33
2023-04-14T04:52:12.754Z,2.15
2023-04-14T04:54:39.520Z,2.17
2023-04-14T04:57:06.280Z,2.00
2023-04-14T04:59:33.281Z,2.40
2023-04-14T05:02:00.056Z,1.88
2023-04-14T05:04:26.890Z,2.10
2023-04-14T05:06:53.750Z,2.40
2023-04-14T05:09:20.493Z,2.25
2023-04-14T05:11:47.233Z,1.75
2023-04-14T05:14:14.039Z,2.40
2023-04-14T05:16:40.907Z,2.13
2023-04-14T05:19:07.999Z,2.22
2023-04-14T05:21:35.509Z,2.13
2023-04-14T05:24:02.344Z,1.90
2023-04-14T05:28:58.917Z,2.20
2023-04-14T05:31:25.923Z,2.22
2023-04-14T05:33:52.677Z,2.33
2023-04-14T05:36:19.432Z,2.47
2023-04-14T05:38:46.462Z,2.60
2023-04-14T05:41:13.225Z,2.72
2023-04-14T05:43:39.992Z,2.92
2023-04-14T05:46:06.763Z,2.53
2023-04-14T05:48:33.807Z,3.03
2023-04-14T05:51:00.843Z,2.78
2023-04-14T05:53:27.827Z,2.80
2023-04-14T05:55:54.617Z,2.50
2023-04-14T05:58:21.637Z,2.80
2023-04-14T06:00:48.409Z,2.70
2023-04-14T06:03:16.455Z,2.92
2023-04-14T06:05:43.855Z,3.00
2023-04-14T06:08:12.229Z,2.53
2023-04-14T06:10:39.054Z,2.67
2023-04-14T06:13:05.853Z,2.85
2023-04-14T06:15:32.754Z,3.08
2023-04-14T06:17:59.490Z,3.10
2023-04-14T06:20:26.305Z,2.80
2023-04-14T06:22:53.084Z,3.20
2023-04-14T06:25:19.871Z,3.00
2023-04-14T06:27:47.172Z,2.55
2023-04-14T06:30:16.910Z,2.67
2023-04-14T06:32:44.073Z,3.10
2023-04-14T06:35:19.073Z,3.17
2023-04-14T06:37:50.452Z,3.03
2023-04-14T06:40:17.491Z,3.17
2023-04-14T06:42:44.215Z,3.45
2023-04-14T06:45:11.402Z,3.20
2023-04-14T06:47:38.696Z,3.42
2023-04-14T06:50:06.209Z,3.17
2023-04-14T06:52:32.992Z,3.28
2023-04-14T06:54:59.784Z,3.28
2023-04-14T06:57:26.627Z,3.78
2023-04-14T06:59:53.391Z,3.88
2023-04-14T07:02:20.413Z,3.63
2023-04-14T07:04:47.214Z,3.53
2023-04-14T07:07:14.769Z,3.40
2023-04-14T07:09:44.655Z,3.60
2023-04-14T07:12:16.481Z,4.13
2023-04-14T07:14:43.397Z,3.50
2023-04-14T07:17:10.271Z,3.78
2023-04-14T07:19:37.016Z,3.80
2023-04-14T07:22:03.800Z,3.40
2023-04-14T07:24:30.583Z,3.30
2023-04-14T07:26:57.356Z,3.92
2023-04-14T07:29:24.194Z,3.92
2023-04-14T07:31:51.742Z,3.45
2023-04-14T07:34:19.663Z,3.42
2023-04-14T07:36:46.581Z,3.03
2023-04-14T07:39:13.354Z,3.42
2023-04-14T07:41:46.390Z,3.30
2023-04-14T07:44:13.199Z,3.30
2023-04-14T07:46:40.175Z,3.53
2023-04-14T07:49:06.943Z,3.22
2023-04-14T07:51:33.669Z,3.20
2023-04-14T07:54:00.745Z,3.38
2023-04-14T07:56:27.689Z,3.42
2023-04-14T07:58:54.492Z,3.67
2023-04-14T08:01:21.275Z,2.95
2023-04-14T08:03:48.765Z,3.25
2023-04-14T08:06:16.872Z,3.20
2023-04-14T08:08:44.143Z,3.30
2023-04-14T08:11:10.901Z,3.25
2023-04-14T08:13:37.713Z,3.25
2023-04-14T08:16:04.668Z,3.28
2023-04-14T08:18:31.729Z,3.22
2023-04-14T08:20:58.452Z,3.20
2023-04-14T08:23:25.225Z,2.97
2023-04-14T08:25:51.999Z,3.47
2023-04-14T08:28:18.830Z,3.33
2023-04-14T08:30:45.606Z,3.35
2023-04-14T08:33:12.412Z,2.60
2023-04-14T08:35:42.430Z,2.53
2023-04-14T08:38:10.045Z,2.63
2023-04-14T08:40:40.266Z,2.60
2023-04-14T08:43:07.892Z,2.80
2023-04-14T08:45:35.662Z,2.67
2023-04-14T08:48:04.395Z,2.72
2023-04-14T08:50:46.736Z,2.75
2023-04-14T08:53:14.533Z,2.45
2023-04-14T08:55:42.735Z,2.50
2023-04-14T08:58:12.763Z,2.90
2023-04-14T09:00:40.316Z,3.10
2023-04-14T09:03:09.293Z,2.70
2023-04-14T09:05:37.373Z,2.53
2023-04-14T09:08:04.961Z,2.50
2023-04-14T09:10:32.517Z,3.03
2023-04-14T09:13:01.345Z,3.17
2023-04-14T09:15:29.196Z,3.55
2023-04-14T09:17:57.173Z,3.33
2023-04-14T09:20:35.878Z,3.30
2023-04-14T09:23:10.117Z,3.00
2023-04-14T09:25:40.010Z,2.95
2023-04-14T09:28:07.347Z,3.03
2023-04-14T09:30:34.561Z,3.40
2023-04-14T09:33:06.963Z,3.63
2023-04-14T09:35:49.775Z,3.60
2023-04-14T09:38:36.441Z,3.30
2023-04-14T09:41:06.118Z,3.38
2023-04-14T09:43:33.601Z,3.65
2023-04-14T09:46:09.505Z,3.50
2023-04-14T09:48:50.280Z,4.32
2023-04-14T09:51:17.120Z,3.70
2023-04-14T09:53:46.434Z,4.13
2023-04-14T09:56:16.007Z,4.63
2023-04-14T09:58:44.871Z,4.28
2023-04-14T10:01:17.954Z,3.97
2023-04-14T10:03:47.980Z,4.10
2023-04-14T10:06:20.100Z,4.10
2023-04-14T10:08:51.541Z,4.43
2023-04-14T10:11:35.533Z,4.53
2023-04-14T10:14:06.242Z,4.28
2023-04-14T10:16:34.335Z,4.15
2023-04-14T10:19:01.822Z,3.80
2023-04-14T10:21:29.267Z,3.58
2023-04-14T10:23:57.647Z,4.50
2023-04-14T10:26:24.954Z,3.80
2023-04-14T10:28:55.531Z,4.20
2023-04-14T10:31:40.344Z,3.97
2023-04-14T10:34:14.830Z,3.55
2023-04-14T10:36:43.632Z,3.97
2023-04-14T10:39:12.325Z,3.80
2023-04-14T10:41:48.840Z,4.22
2023-04-14T10:44:32.219Z,4.40
2023-04-14T10:47:02.237Z,4.53
2023-04-14T10:49:38.574Z,3.78
2023-04-14T10:52:06.619Z,3.70
2023-04-14T10:54:53.894Z,3.67
2023-04-14T10:57:26.693Z,3.80
2023-04-14T11:00:00.448Z,3.83
2023-04-14T11:02:32.447Z,3.85
2023-04-14T11:05:00.972Z,3.70
2023-04-14T11:07:31.365Z,3.60
2023-04-14T11:10:03.409Z,3.08
2023-04-14T11:12:31.400Z,3.65
2023-04-14T11:15:05.004Z,3.90
2023-04-14T11:17:33.955Z,3.72
2023-04-14T11:20:01.262Z,4.15
2023-04-14T11:22:45.939Z,4.15
2023-04-14T11:25:24.081Z,3.90
2023-04-14T11:27:52.216Z,3.40
2023-04-14T11:30:21.324Z,4.03
2023-04-14T11:32:59.643Z,3.88
2023-04-14T11:35:28.397Z,4.10
2023-04-14T11:37:56.776Z,3.53
2023-04-14T11:40:26.559Z,3.92
2023-04-14T11:42:59.103Z,3.88
2023-04-14T11:45:31.971Z,4.13
2023-04-14T11:48:07.293Z,3.85
2023-04-14T11:50:39.029Z,4.03
2023-04-14T11:53:14.179Z,3.97
2023-04-14T11:55:48.065Z,3.92
2023-04-14T11:58:21.484Z,3.65
2023-04-14T12:00:49.982Z,3.75
2023-04-14T12:03:18.019Z,3.85
2023-04-14T12:05:45.377Z,3.78
2023-04-14T12:08:12.715Z,3.88
2023-04-14T12:10:47.956Z,3.63
2023-04-14T12:13:15.421Z,3.85
2023-04-14T12:15:42.792Z,3.53
2023-04-14T12:18:15.809Z,3.60
2023-04-14T12:21:01.976Z,4.20
2023-04-14T12:23:28.946Z,3.10
2023-04-14T12:25:56.082Z,3.55
2023-04-14T12:28:30.049Z,3.63
2023-04-14T12:33:31.391Z,3.72
2023-04-14T12:36:27.501Z,3.28
2023-04-14T12:39:09.486Z,3.90
2023-04-14T12:41:40.018Z,3.95
2023-04-14T12:44:20.921Z,3.63
2023-04-14T12:46:52.721Z,3.90
2023-04-14T12:49:38.591Z,3.53
2023-04-14T12:52:07.974Z,3.60
2023-04-14T12:54:53.871Z,3.67
2023-04-14T12:57:22.073Z,3.92
2023-04-14T12:59:49.227Z,3.97
2023-04-14T13:02:16.039Z,3.42
2023-04-14T13:04:43.666Z,3.47
2023-04-14T13:07:10.411Z,3.45
2023-04-14T13:09:37.288Z,3.75
2023-04-14T13:12:04.070Z,3.85
2023-04-14T13:14:30.822Z,4.45
2023-04-14T13:16:57.644Z,3.67
2023-04-14T13:19:24.434Z,4.30
2023-04-14T13:21:51.308Z,3.85
2023-04-14T13:24:18.061Z,3.63
2023-04-14T13:26:46.132Z,4.05
2023-04-14T13:29:15.895Z,4.53
2023-04-14T13:31:42.721Z,4.53
2023-04-14T13:34:11.087Z,3.88
2023-04-14T13:36:37.963Z,3.83
2023-04-14T13:39:04.851Z,3.78
2023-04-14T13:41:31.717Z,4.38
2023-04-14T13:43:58.557Z,4.40
2023-04-14T13:46:25.406Z,4.07
2023-04-14T13:48:52.438Z,3.88
2023-04-14T13:51:19.251Z,4.53
2023-04-14T13:53:47.342Z,4.78
2023-04-14T13:56:14.084Z,4.45
2023-04-14T13:58:41.691Z,4.32
2023-04-14T14:01:12.292Z,4.93
2023-04-14T14:03:41.915Z,4.38
2023-04-14T14:06:09.140Z,5.10
2023-04-14T14:08:39.091Z,4.55
2023-04-14T14:11:06.390Z,4.68
2023-04-14T14:13:35.981Z,4.93
2023-04-14T14:16:03.753Z,4.35
2023-04-14T14:18:30.734Z,4.60
2023-04-14T14:20:57.683Z,3.90
2023-04-14T14:23:26.238Z,3.72
2023-04-14T14:25:55.634Z,3.55
2023-04-14T14:28:22.550Z,3.78
2023-04-14T14:30:49.410Z,3.05
2023-04-14T14:33:16.269Z,3.15
2023-04-14T14:35:43.018Z,3.00
2023-04-14T14:38:09.853Z,3.00
2023-04-14T14:40:36.649Z,2.60
2023-04-14T14:43:03.728Z,3.25
2023-04-14T14:45:31.789Z,3.08
2023-04-14T14:47:59.865Z,2.85
2023-04-14T14:50:26.658Z,3.00
2023-04-14T14:52:56.063Z,3.20
2023-04-14T14:55:23.126Z,3.08
2023-04-14T14:57:51.033Z,2.75
2023-04-14T15:00:19.569Z,2.58
2023-04-14T15:02:46.631Z,2.30
2023-04-14T15:05:13.552Z,2.55
2023-04-14T15:07:40.595Z,2.97
2023-04-14T15:10:08.063Z,2.60
2023-04-14T15:12:34.856Z,3.25
2023-04-14T15:15:01.679Z,2.65
2023-04-14T15:17:28.558Z,3.63
2023-04-14T15:19:55.396Z,2.75
2023-04-14T15:22:22.488Z,2.53
2023-04-14T15:24:49.211Z,2.80
2023-04-14T15:27:15.940Z,2.90
2023-04-14T15:29:42.708Z,2.70
2023-04-14T15:32:09.532Z,3.15
2023-04-14T15:34:36.489Z,3.03
2023-04-14T15:37:03.273Z,2.90
2023-04-14T15:39:30.029Z,2.35
2023-04-14T15:41:57.019Z,2.35
2023-04-14T15:44:26.130Z,3.10
2023-04-14T15:46:53.564Z,2.60
2023-04-14T15:49:22.690Z,2.90
2023-04-14T15:51:50.542Z,2.53
2023-04-14T15:54:17.405Z,2.90
2023-04-14T15:56:44.218Z,2.65
2023-04-14T15:59:11.195Z,2.85
2023-04-14T16:01:37.963Z,2.67
2023-04-14T16:04:04.981Z,2.67
2023-04-14T16:06:33.060Z,2.92
2023-04-14T16:09:00.176Z,3.03
2023-04-14T16:11:27.183Z,3.05
2023-04-14T16:13:54.334Z,3.05
2023-04-14T16:16:21.381Z,2.60
2023-04-14T16:18:49.143Z,2.58
2023-04-14T16:21:16.270Z,2.90
2023-04-14T16:23:43.183Z,2.65
2023-04-14T16:26:10.003Z,2.72
2023-04-14T16:28:36.796Z,2.30
2023-04-14T16:31:03.672Z,2.47
2023-04-14T16:33:32.544Z,2.60
2023-04-14T16:36:04.749Z,2.28
2023-04-14T16:38:31.806Z,2.88
2023-04-14T16:41:00.113Z,2.70
2023-04-14T16:43:27.989Z,2.40
2023-04-14T16:46:04.410Z,2.80
2023-04-14T16:48:32.481Z,2.47
2023-04-14T16:51:10.543Z,2.88
2023-04-14T16:53:38.807Z,2.78
2023-04-14T16:56:10.072Z,2.88
2023-04-14T16:58:38.123Z,2.60
2023-04-14T17:01:06.218Z,2.70
2023-04-14T17:03:33.877Z,2.50
2023-04-14T17:06:00.920Z,2.38
2023-04-14T17:08:27.763Z,6.00
2023-04-14T17:10:54.631Z,2.78
2023-04-14T17:13:23.138Z,3.00
2023-04-14T17:15:58.763Z,2.70
2023-04-14T17:18:33.627Z,2.50
2023-04-14T17:21:00.487Z,2.75
2023-04-14T17:23:27.700Z,2.30
2023-04-14T17:25:56.981Z,2.45
2023-04-14T17:28:24.086Z,2.55
2023-04-14T17:30:51.077Z,2.80
2023-04-14T17:33:19.930Z,2.28
2023-04-14T17:35:46.909Z,2.40
2023-04-14T17:38:13.929Z,2.25
2023-04-14T17:40:40.711Z,2.65
2023-04-14T17:43:07.812Z,2.40
2023-04-14T17:45:35.127Z,2.83
2023-04-14T17:48:02.093Z,3.00
2023-04-14T17:50:29.468Z,3.00
2023-04-14T17:52:58.012Z,2.85
2023-04-14T17:55:24.765Z,2.63
2023-04-14T17:57:51.637Z,2.70
2023-04-14T18:00:19.966Z,2.55
2023-04-14T18:02:47.072Z,3.08
2023-04-14T18:05:13.929Z,2.95
2023-04-14T18:07:42.298Z,2.80
2023-04-14T18:10:09.634Z,3.10
2023-04-14T18:12:36.521Z,3.03
2023-04-14T18:15:04.879Z,3.15
2023-04-14T18:17:32.810Z,3.05
2023-04-14T18:19:59.607Z,3.63
2023-04-14T18:22:27.432Z,3.53
2023-04-14T18:24:54.259Z,3.28
2023-04-14T18:29:52.838Z,3.30
2023-04-14T18:32:19.812Z,3.88
2023-04-14T18:34:46.780Z,3.65
2023-04-14T18:37:15.516Z,3.30
2023-04-14T18:39:42.906Z,4.13
2023-04-14T18:42:10.237Z,3.92
2023-04-14T18:44:37.020Z,4.18
2023-04-14T18:47:03.907Z,3.90
2023-04-14T18:49:31.114Z,4.18
2023-04-14T18:51:57.896Z,4.38
2023-04-14T18:54:24.693Z,3.92
2023-04-14T18:56:51.709Z,4.00
2023-04-14T18:59:18.657Z,3.90
2023-04-14T19:01:46.278Z,4.03
2023-04-14T19:04:13.131Z,4.10
2023-04-14T19:06:40.475Z,3.90
2023-04-14T19:09:07.356Z,4.32
2023-04-14T19:11:35.994Z,3.90
2023-04-14T19:14:04.742Z,3.90
2023-04-14T19:16:32.700Z,4.60
2023-04-14T19:18:59.724Z,4.07
2023-04-14T19:21:26.797Z,4.38
2023-04-14T19:23:56.788Z,4.50
2023-04-14T19:26:24.272Z,4.68
2023-04-14T19:28:52.946Z,4.63
2023-04-14T19:31:21.400Z,4.90
2023-04-14T19:33:49.076Z,4.80
2023-04-14T19:36:17.546Z,5.22
2023-04-14T19:38:45.453Z,5.22
2023-04-14T19:41:12.528Z,5.13
2023-04-14T19:43:39.332Z,5.43
2023-04-14T19:46:07.435Z,5.60
2023-04-14T19:48:34.651Z,5.38
2023-04-14T19:51:02.362Z,6.28
2023-04-14T19:53:29.855Z,6.15
2023-04-14T19:55:58.457Z,7.18
2023-04-14T19:58:27.629Z,6.30
2023-04-14T20:00:58.892Z,6.53
2023-04-14T20:03:26.973Z,5.82
2023-04-14T20:05:56.772Z,6.72
2023-04-14T20:08:26.259Z,6.57
2023-04-14T20:10:54.492Z,6.50
2023-04-14T20:13:23.596Z,5.88
2023-04-14T20:15:53.890Z,5.30
2023-04-14T20:18:22.432Z,5.32
2023-04-14T20:20:49.643Z,5.68
2023-04-14T20:23:17.026Z,6.00
2023-04-14T20:25:44.982Z,6.80
2023-04-14T20:28:11.878Z,6.30
2023-04-14T20:30:40.055Z,6.13
2023-04-14T20:33:06.940Z,6.32
2023-04-14T20:35:36.895Z,6.38
2023-04-14T20:38:05.184Z,6.05
2023-04-14T20:40:32.626Z,6.60
2023-04-14T20:43:00.026Z,6.20
2023-04-14T20:45:26.899Z,6.38
2023-04-14T20:47:54.026Z,6.28
2023-04-14T20:50:21.162Z,7.07
2023-04-14T20:52:48.731Z,6.30
2023-04-14T20:55:15.701Z,7.00
2023-04-14T20:57:42.808Z,7.22
2023-04-14T21:00:12.031Z,6.80
2023-04-14T21:02:39.036Z,6.57
2023-04-14T21:05:06.416Z,7.65
2023-04-14T21:07:35.594Z,7.70
2023-04-14T21:10:05.873Z,9.27
2023-04-14T21:12:33.793Z,8.63
2023-04-14T21:15:40.366Z,8.02
2023-04-14T21:17:52.553Z,7.63
2023-04-14T21:20:19.373Z,10.27
2023-04-14T21:22:46.184Z,9.75
2023-04-14T21:25:12.989Z,9.00
2023-04-14T21:27:39.910Z,9.13
2023-04-14T21:30:09.175Z,9.18
2023-04-14T21:32:36.170Z,8.18
2023-04-14T21:35:03.687Z,9.20
2023-04-14T21:37:30.628Z,9.40
2023-04-14T21:39:59.083Z,9.02
2023-04-14T21:42:26.588Z,8.95
2023-04-14T21:44:54.248Z,9.35
2023-04-14T21:47:21.152Z,9.48
2023-04-14T21:49:47.939Z,9.35
2023-04-14T21:52:14.954Z,9.07
2023-04-14T21:54:44.207Z,9.23
2023-04-14T21:57:11.551Z,9.07
2023-04-14T21:59:38.357Z,9.02
2023-04-14T22:02:05.599Z,9.75
2023-04-14T22:04:36.434Z,9.68
2023-04-14T22:07:05.127Z,9.85
2023-04-14T22:09:33.539Z,10.27
2023-04-14T22:12:00.580Z,9.35
2023-04-14T22:14:27.706Z,10.57
2023-04-14T22:16:55.114Z,9.93
2023-04-14T22:19:22.250Z,9.98
2023-04-14T22:21:49.735Z,9.57
2023-04-14T22:24:16.533Z,9.90
2023-04-14T22:26:43.284Z,9.60
2023-04-14T22:29:11.532Z,9.48
2023-04-14T22:31:38.488Z,9.25
2023-04-14T22:34:05.330Z,9.75
2023-04-14T22:36:32.293Z,10.73
2023-04-14T22:39:00.317Z,9.88
2023-04-14T22:41:27.177Z,10.63
2023-04-14T22:43:54.008Z,9.85
2023-04-14T22:46:21.059Z,10.05
2023-04-14T22:48:47.921Z,10.20
2023-04-14T22:51:14.825Z,10.30
2023-04-14T22:53:41.635Z,9.68
2023-04-14T22:56:08.682Z,10.15
2023-04-14T22:58:39.305Z,11.23
2023-04-14T23:01:19.246Z,11.35
2023-04-14T23:03:52.173Z,11.13
2023-04-14T23:06:20.315Z,11.13
2023-04-14T23:08:51.235Z,11.13
2023-04-14T23:11:21.023Z,11.05
2023-04-14T23:13:49.821Z,11.93
2023-04-14T23:16:20.241Z,12.27
2023-04-14T23:18:52.318Z,11.60
2023-04-14T23:21:22.508Z,12.02
2023-04-14T23:23:50.515Z,11.95
2023-04-14T23:26:19.756Z,13.57
2023-04-14T23:28:46.750Z,12.32
2023-04-14T23:31:13.945Z,11.88
2023-04-14T23:33:41.072Z,11.77
2023-04-14T23:36:08.209Z,12.10
2023-04-14T23:38:35.343Z,12.40
2023-04-14T23:41:03.209Z,12.32
2023-04-14T23:43:30.030Z,12.40
2023-04-14T23:45:56.937Z,12.70
2023-04-14T23:48:24.149Z,13.00
2023-04-14T23:51:00.510Z,13.68
2023-04-14T23:53:37.812Z,12.07
2023-04-14T23:56:04.980Z,13.02
2023-04-14T23:58:32.506Z,13.48
